Leonardtown, Maryland
Current Conditions -  °F | °C
As of 12:10 PM on Thursday 18 Dec 2014 (Local Time) from K2W6 Reporting Station
Clear Clear  
Wind Chill: 32°   Ceiling: Unl
Heat Index: 39°   Visibility: 10mi
Dew Point: 19°   Wind: 12mph
Humidity: 45%   Direction: 300°WNW
Pressure: 30.13"   Gusts: 17mph
Location:  38.29°N, 76.64°W
Report Text: K2W6 181710Z AUTO 30010G15KT 10SM CLR 04/M07 A3013 RMK AO1
Loading
Personal Weather Stations






























Interactive Weather Map New forecast layout! Learn more

10-Day Weather Forecast

Advertisements
Track Severe Weather on mobile